sensor_id;sensor_type;location;lat;lon;timestamp;P1;durP1;ratioP1;P2;durP2;ratioP2
20084;SDS011;10202;48.474;9.138;2023-04-15T00:00:08;8.87;;;5.87;;
20084;SDS011;10202;48.474;9.138;2023-04-15T00:02:43;9.23;;;5.43;;
20084;SDS011;10202;48.474;9.138;2023-04-15T00:05:08;9.60;;;5.80;;
20084;SDS011;10202;48.474;9.138;2023-04-15T00:07:37;9.50;;;5.40;;
20084;SDS011;10202;48.474;9.138;2023-04-15T00:10:05;9.03;;;4.80;;
20084;SDS011;10202;48.474;9.138;2023-04-15T00:12:41;10.27;;;4.73;;
20084;SDS011;10202;48.474;9.138;2023-04-15T00:15:07;7.87;;;4.23;;
20084;SDS011;10202;48.474;9.138;2023-04-15T00:17:34;8.10;;;4.90;;
20084;SDS011;10202;48.474;9.138;2023-04-15T00:20:07;7.93;;;4.57;;
20084;SDS011;10202;48.474;9.138;2023-04-15T00:22:36;9.30;;;4.70;;
20084;SDS011;10202;48.474;9.138;2023-04-15T00:25:03;8.87;;;4.20;;
20084;SDS011;10202;48.474;9.138;2023-04-15T00:27:34;7.27;;;4.17;;
20084;SDS011;10202;48.474;9.138;2023-04-15T00:30:00;6.50;;;3.23;;
20084;SDS011;10202;48.474;9.138;2023-04-15T00:32:28;8.37;;;3.77;;
20084;SDS011;10202;48.474;9.138;2023-04-15T00:34:57;9.10;;;3.40;;
20084;SDS011;10202;48.474;9.138;2023-04-15T00:37:25;9.93;;;3.10;;
20084;SDS011;10202;48.474;9.138;2023-04-15T00:39:51;5.67;;;3.23;;
20084;SDS011;10202;48.474;9.138;2023-04-15T00:42:22;5.30;;;2.70;;
20084;SDS011;10202;48.474;9.138;2023-04-15T00:44:50;6.87;;;3.10;;
20084;SDS011;10202;48.474;9.138;2023-04-15T00:47:23;6.60;;;2.80;;
20084;SDS011;10202;48.474;9.138;2023-04-15T00:49:56;4.30;;;3.10;;
20084;SDS011;10202;48.474;9.138;2023-04-15T00:52:23;9.57;;;3.90;;
20084;SDS011;10202;48.474;9.138;2023-04-15T00:54:54;3.50;;;2.77;;
20084;SDS011;10202;48.474;9.138;2023-04-15T00:57:22;7.33;;;2.57;;
20084;SDS011;10202;48.474;9.138;2023-04-15T00:59:51;6.87;;;2.57;;
20084;SDS011;10202;48.474;9.138;2023-04-15T01:02:18;10.33;;;2.60;;
20084;SDS011;10202;48.474;9.138;2023-04-15T01:04:46;3.77;;;2.03;;
20084;SDS011;10202;48.474;9.138;2023-04-15T01:07:12;3.93;;;2.20;;
20084;SDS011;10202;48.474;9.138;2023-04-15T01:09:44;4.03;;;2.13;;
20084;SDS011;10202;48.474;9.138;2023-04-15T01:12:13;5.97;;;2.57;;
20084;SDS011;10202;48.474;9.138;2023-04-15T01:14:41;8.10;;;3.27;;
20084;SDS011;10202;48.474;9.138;2023-04-15T01:17:09;6.53;;;3.60;;
20084;SDS011;10202;48.474;9.138;2023-04-15T01:19:38;7.13;;;3.33;;
20084;SDS011;10202;48.474;9.138;2023-04-15T01:22:04;6.73;;;3.27;;
20084;SDS011;10202;48.474;9.138;2023-04-15T01:24:34;6.33;;;3.20;;
20084;SDS011;10202;48.474;9.138;2023-04-15T01:27:03;6.10;;;3.10;;
20084;SDS011;10202;48.474;9.138;2023-04-15T01:29:32;6.50;;;3.73;;
20084;SDS011;10202;48.474;9.138;2023-04-15T01:32:04;4.93;;;3.47;;
20084;SDS011;10202;48.474;9.138;2023-04-15T01:34:29;6.10;;;3.33;;
20084;SDS011;10202;48.474;9.138;2023-04-15T01:36:55;4.97;;;2.83;;
20084;SDS011;10202;48.474;9.138;2023-04-15T01:39:25;10.37;;;3.03;;
20084;SDS011;10202;48.474;9.138;2023-04-15T01:41:58;6.67;;;2.83;;
20084;SDS011;10202;48.474;9.138;2023-04-15T01:44:26;3.77;;;2.20;;
20084;SDS011;10202;48.474;9.138;2023-04-15T01:46:56;4.77;;;2.00;;
20084;SDS011;10202;48.474;9.138;2023-04-15T01:49:25;4.20;;;2.17;;
20084;SDS011;10202;48.474;9.138;2023-04-15T01:51:52;5.57;;;1.80;;
20084;SDS011;10202;48.474;9.138;2023-04-15T01:54:18;4.40;;;2.37;;
20084;SDS011;10202;48.474;9.138;2023-04-15T01:56:51;2.83;;;1.87;;
20084;SDS011;10202;48.474;9.138;2023-04-15T01:59:23;4.63;;;2.10;;
20084;SDS011;10202;48.474;9.138;2023-04-15T02:01:52;3.53;;;1.87;;
20084;SDS011;10202;48.474;9.138;2023-04-15T02:04:25;5.90;;;2.30;;
20084;SDS011;10202;48.474;9.138;2023-04-15T02:06:52;8.53;;;2.20;;
20084;SDS011;10202;48.474;9.138;2023-04-15T02:09:23;7.50;;;2.10;;
20084;SDS011;10202;48.474;9.138;2023-04-15T02:11:52;5.53;;;2.10;;
20084;SDS011;10202;48.474;9.138;2023-04-15T02:14:18;5.37;;;1.90;;
20084;SDS011;10202;48.474;9.138;2023-04-15T02:16:45;2.73;;;1.67;;
20084;SDS011;10202;48.474;9.138;2023-04-15T02:19:15;6.30;;;2.23;;
20084;SDS011;10202;48.474;9.138;2023-04-15T02:21:48;3.40;;;1.87;;
20084;SDS011;10202;48.474;9.138;2023-04-15T02:24:21;5.77;;;2.20;;
20084;SDS011;10202;48.474;9.138;2023-04-15T02:26:51;5.40;;;2.13;;
20084;SDS011;10202;48.474;9.138;2023-04-15T02:29:17;4.97;;;2.07;;
20084;SDS011;10202;48.474;9.138;2023-04-15T02:31:47;4.63;;;2.30;;
20084;SDS011;10202;48.474;9.138;2023-04-15T02:34:15;6.93;;;2.60;;
20084;SDS011;10202;48.474;9.138;2023-04-15T02:36:43;5.80;;;2.50;;
20084;SDS011;10202;48.474;9.138;2023-04-15T02:39:12;3.93;;;2.67;;
20084;SDS011;10202;48.474;9.138;2023-04-15T02:41:45;7.87;;;2.53;;
20084;SDS011;10202;48.474;9.138;2023-04-15T02:44:18;6.27;;;2.70;;
20084;SDS011;10202;48.474;9.138;2023-04-15T02:46:46;7.47;;;2.77;;
20084;SDS011;10202;48.474;9.138;2023-04-15T02:49:15;5.47;;;2.73;;
20084;SDS011;10202;48.474;9.138;2023-04-15T02:51:46;5.80;;;3.30;;
20084;SDS011;10202;48.474;9.138;2023-04-15T02:54:18;7.60;;;2.67;;
20084;SDS011;10202;48.474;9.138;2023-04-15T02:56:49;9.90;;;2.90;;
20084;SDS011;10202;48.474;9.138;2023-04-15T02:59:15;7.50;;;2.83;;
20084;SDS011;10202;48.474;9.138;2023-04-15T03:01:43;8.97;;;2.90;;
20084;SDS011;10202;48.474;9.138;2023-04-15T03:04:13;6.53;;;3.00;;
20084;SDS011;10202;48.474;9.138;2023-04-15T03:06:41;6.20;;;3.17;;
20084;SDS011;10202;48.474;9.138;2023-04-15T03:09:08;6.13;;;3.40;;
20084;SDS011;10202;48.474;9.138;2023-04-15T03:11:41;6.77;;;2.87;;
20084;SDS011;10202;48.474;9.138;2023-04-15T03:14:09;5.93;;;3.40;;
20084;SDS011;10202;48.474;9.138;2023-04-15T03:16:41;5.30;;;3.03;;
20084;SDS011;10202;48.474;9.138;2023-04-15T03:19:06;6.67;;;3.30;;
20084;SDS011;10202;48.474;9.138;2023-04-15T03:21:39;5.70;;;3.35;;
20084;SDS011;10202;48.474;9.138;2023-04-15T03:24:05;11.47;;;3.67;;
20084;SDS011;10202;48.474;9.138;2023-04-15T03:26:33;5.23;;;2.90;;
20084;SDS011;10202;48.474;9.138;2023-04-15T03:29:03;6.37;;;2.87;;
20084;SDS011;10202;48.474;9.138;2023-04-15T03:31:32;8.77;;;3.13;;
20084;SDS011;10202;48.474;9.138;2023-04-15T03:34:00;6.13;;;3.00;;
20084;SDS011;10202;48.474;9.138;2023-04-15T03:36:30;5.87;;;2.50;;
20084;SDS011;10202;48.474;9.138;2023-04-15T03:38:57;8.63;;;3.00;;
20084;SDS011;10202;48.474;9.138;2023-04-15T03:41:28;4.63;;;3.00;;
20084;SDS011;10202;48.474;9.138;2023-04-15T03:43:55;6.10;;;2.90;;
20084;SDS011;10202;48.474;9.138;2023-04-15T03:46:23;6.50;;;2.80;;
20084;SDS011;10202;48.474;9.138;2023-04-15T03:48:49;7.03;;;2.90;;
20084;SDS011;10202;48.474;9.138;2023-04-15T03:51:14;7.37;;;3.00;;
20084;SDS011;10202;48.474;9.138;2023-04-15T03:53:42;5.00;;;2.73;;
20084;SDS011;10202;48.474;9.138;2023-04-15T03:56:12;4.93;;;2.87;;
20084;SDS011;10202;48.474;9.138;2023-04-15T03:58:38;4.23;;;2.27;;
20084;SDS011;10202;48.474;9.138;2023-04-15T04:01:05;3.37;;;2.47;;
20084;SDS011;10202;48.474;9.138;2023-04-15T04:03:36;5.90;;;2.80;;
20084;SDS011;10202;48.474;9.138;2023-04-15T04:06:07;4.83;;;2.27;;
20084;SDS011;10202;48.474;9.138;2023-04-15T04:08:38;6.13;;;2.37;;
20084;SDS011;10202;48.474;9.138;2023-04-15T04:11:07;4.20;;;2.60;;
20084;SDS011;10202;48.474;9.138;2023-04-15T04:13:34;4.17;;;2.77;;
20084;SDS011;10202;48.474;9.138;2023-04-15T04:16:02;5.93;;;3.33;;
20084;SDS011;10202;48.474;9.138;2023-04-15T04:18:31;8.77;;;3.47;;
20084;SDS011;10202;48.474;9.138;2023-04-15T04:21:00;5.97;;;3.10;;
20084;SDS011;10202;48.474;9.138;2023-04-15T04:23:30;5.60;;;3.07;;
20084;SDS011;10202;48.474;9.138;2023-04-15T04:25:58;6.23;;;2.73;;
20084;SDS011;10202;48.474;9.138;2023-04-15T04:28:26;7.67;;;3.00;;
20084;SDS011;10202;48.474;9.138;2023-04-15T04:30:54;9.50;;;2.80;;
20084;SDS011;10202;48.474;9.138;2023-04-15T04:33:25;4.13;;;2.40;;
20084;SDS011;10202;48.474;9.138;2023-04-15T04:35:55;3.60;;;2.53;;
20084;SDS011;10202;48.474;9.138;2023-04-15T04:38:23;5.47;;;2.90;;
20084;SDS011;10202;48.474;9.138;2023-04-15T04:40:50;8.23;;;2.80;;
20084;SDS011;10202;48.474;9.138;2023-04-15T04:43:18;6.67;;;3.10;;
20084;SDS011;10202;48.474;9.138;2023-04-15T04:45:44;6.10;;;2.90;;
20084;SDS011;10202;48.474;9.138;2023-04-15T04:48:14;7.40;;;3.07;;
20084;SDS011;10202;48.474;9.138;2023-04-15T04:50:49;8.77;;;3.00;;
20084;SDS011;10202;48.474;9.138;2023-04-15T04:53:19;5.33;;;2.57;;
20084;SDS011;10202;48.474;9.138;2023-04-15T04:55:47;7.37;;;2.40;;
20084;SDS011;10202;48.474;9.138;2023-04-15T04:58:17;4.67;;;2.47;;
20084;SDS011;10202;48.474;9.138;2023-04-15T05:00:48;9.63;;;3.57;;
20084;SDS011;10202;48.474;9.138;2023-04-15T05:03:21;11.90;;;4.33;;
20084;SDS011;10202;48.474;9.138;2023-04-15T05:05:49;11.33;;;3.93;;
20084;SDS011;10202;48.474;9.138;2023-04-15T05:08:17;7.83;;;2.80;;
20084;SDS011;10202;48.474;9.138;2023-04-15T05:10:48;4.23;;;2.37;;
20084;SDS011;10202;48.474;9.138;2023-04-15T05:13:13;4.50;;;2.90;;
20084;SDS011;10202;48.474;9.138;2023-04-15T05:15:41;4.63;;;2.80;;
20084;SDS011;10202;48.474;9.138;2023-04-15T05:18:07;6.37;;;3.00;;
20084;SDS011;10202;48.474;9.138;2023-04-15T05:20:37;8.47;;;3.20;;
20084;SDS011;10202;48.474;9.138;2023-04-15T05:23:06;6.90;;;2.70;;
20084;SDS011;10202;48.474;9.138;2023-04-15T05:25:36;4.23;;;2.60;;
20084;SDS011;10202;48.474;9.138;2023-04-15T05:28:08;3.73;;;2.47;;
20084;SDS011;10202;48.474;9.138;2023-04-15T05:30:35;6.67;;;2.43;;
20084;SDS011;10202;48.474;9.138;2023-04-15T05:33:09;3.10;;;2.43;;
20084;SDS011;10202;48.474;9.138;2023-04-15T05:35:38;11.07;;;2.67;;
20084;SDS011;10202;48.474;9.138;2023-04-15T05:38:06;9.30;;;2.23;;
20084;SDS011;10202;48.474;9.138;2023-04-15T05:40:34;12.43;;;2.60;;
20084;SDS011;10202;48.474;9.138;2023-04-15T05:43:02;7.90;;;2.47;;
20084;SDS011;10202;48.474;9.138;2023-04-15T05:45:30;8.90;;;3.80;;
20084;SDS011;10202;48.474;9.138;2023-04-15T05:47:57;16.97;;;5.90;;
20084;SDS011;10202;48.474;9.138;2023-04-15T05:50:23;11.17;;;5.27;;
20084;SDS011;10202;48.474;9.138;2023-04-15T05:52:51;10.90;;;4.53;;
20084;SDS011;10202;48.474;9.138;2023-04-15T05:55:18;9.93;;;5.03;;
20084;SDS011;10202;48.474;9.138;2023-04-15T05:57:44;11.63;;;5.43;;
20084;SDS011;10202;48.474;9.138;2023-04-15T06:00:10;8.70;;;4.17;;
20084;SDS011;10202;48.474;9.138;2023-04-15T06:02:37;9.10;;;4.77;;
20084;SDS011;10202;48.474;9.138;2023-04-15T06:05:05;7.93;;;4.60;;
20084;SDS011;10202;48.474;9.138;2023-04-15T06:07:37;9.60;;;4.13;;
20084;SDS011;10202;48.474;9.138;2023-04-15T06:10:03;8.57;;;4.57;;
20084;SDS011;10202;48.474;9.138;2023-04-15T06:12:32;14.40;;;4.10;;
20084;SDS011;10202;48.474;9.138;2023-04-15T06:15:00;10.40;;;4.27;;
20084;SDS011;10202;48.474;9.138;2023-04-15T06:17:26;8.90;;;3.70;;
20084;SDS011;10202;48.474;9.138;2023-04-15T06:19:54;6.77;;;2.83;;
20084;SDS011;10202;48.474;9.138;2023-04-15T06:22:24;11.00;;;5.60;;
20084;SDS011;10202;48.474;9.138;2023-04-15T06:24:50;7.13;;;4.13;;
20084;SDS011;10202;48.474;9.138;2023-04-15T06:27:17;4.83;;;3.30;;
20084;SDS011;10202;48.474;9.138;2023-04-15T06:29:43;8.97;;;3.20;;
20084;SDS011;10202;48.474;9.138;2023-04-15T06:32:09;5.53;;;3.00;;
20084;SDS011;10202;48.474;9.138;2023-04-15T06:34:35;3.77;;;2.77;;
20084;SDS011;10202;48.474;9.138;2023-04-15T06:37:00;5.90;;;3.10;;
20084;SDS011;10202;48.474;9.138;2023-04-15T06:39:30;5.80;;;2.70;;
20084;SDS011;10202;48.474;9.138;2023-04-15T06:41:56;5.30;;;3.00;;
20084;SDS011;10202;48.474;9.138;2023-04-15T06:44:22;6.10;;;3.10;;
20084;SDS011;10202;48.474;9.138;2023-04-15T06:46:50;5.40;;;3.27;;
20084;SDS011;10202;48.474;9.138;2023-04-15T06:49:17;5.60;;;2.70;;
20084;SDS011;10202;48.474;9.138;2023-04-15T06:51:45;10.97;;;3.07;;
20084;SDS011;10202;48.474;9.138;2023-04-15T06:54:16;5.68;;;3.03;;
20084;SDS011;10202;48.474;9.138;2023-04-15T06:56:45;6.53;;;2.97;;
20084;SDS011;10202;48.474;9.138;2023-04-15T06:59:15;8.55;;;3.00;;
20084;SDS011;10202;48.474;9.138;2023-04-15T07:01:41;6.68;;;3.20;;
20084;SDS011;10202;48.474;9.138;2023-04-15T07:04:09;7.68;;;3.90;;
20084;SDS011;10202;48.474;9.138;2023-04-15T07:06:40;7.68;;;3.58;;
20084;SDS011;10202;48.474;9.138;2023-04-15T07:09:08;4.95;;;2.90;;
20084;SDS011;10202;48.474;9.138;2023-04-15T07:11:36;6.22;;;3.20;;
20084;SDS011;10202;48.474;9.138;2023-04-15T07:14:06;8.35;;;3.72;;
20084;SDS011;10202;48.474;9.138;2023-04-15T07:16:34;7.03;;;4.28;;
20084;SDS011;10202;48.474;9.138;2023-04-15T07:19:02;8.05;;;3.80;;
20084;SDS011;10202;48.474;9.138;2023-04-15T07:21:28;5.90;;;3.50;;
20084;SDS011;10202;48.474;9.138;2023-04-15T07:23:53;5.00;;;3.17;;
20084;SDS011;10202;48.474;9.138;2023-04-15T07:26:21;9.77;;;3.35;;
20084;SDS011;10202;48.474;9.138;2023-04-15T07:28:51;10.32;;;3.85;;
20084;SDS011;10202;48.474;9.138;2023-04-15T07:31:22;13.30;;;3.85;;
20084;SDS011;10202;48.474;9.138;2023-04-15T07:33:48;7.60;;;3.70;;
20084;SDS011;10202;48.474;9.138;2023-04-15T07:36:16;7.10;;;3.20;;
20084;SDS011;10202;48.474;9.138;2023-04-15T07:38:44;7.05;;;3.60;;
20084;SDS011;10202;48.474;9.138;2023-04-15T07:41:13;6.75;;;3.78;;
20084;SDS011;10202;48.474;9.138;2023-04-15T07:43:40;10.18;;;3.67;;
20084;SDS011;10202;48.474;9.138;2023-04-15T07:46:11;7.65;;;3.80;;
20084;SDS011;10202;48.474;9.138;2023-04-15T07:48:39;4.18;;;2.83;;
20084;SDS011;10202;48.474;9.138;2023-04-15T07:51:09;6.97;;;3.78;;
20084;SDS011;10202;48.474;9.138;2023-04-15T07:53:38;7.88;;;3.15;;
20084;SDS011;10202;48.474;9.138;2023-04-15T07:56:03;12.55;;;4.40;;
20084;SDS011;10202;48.474;9.138;2023-04-15T07:58:29;5.40;;;3.22;;
20084;SDS011;10202;48.474;9.138;2023-04-15T08:01:00;7.35;;;3.20;;
20084;SDS011;10202;48.474;9.138;2023-04-15T08:03:29;5.32;;;3.17;;
20084;SDS011;10202;48.474;9.138;2023-04-15T08:05:57;8.43;;;3.15;;
20084;SDS011;10202;48.474;9.138;2023-04-15T08:08:28;11.75;;;3.33;;
20084;SDS011;10202;48.474;9.138;2023-04-15T08:10:57;7.57;;;3.15;;
20084;SDS011;10202;48.474;9.138;2023-04-15T08:13:28;6.82;;;2.72;;
20084;SDS011;10202;48.474;9.138;2023-04-15T08:18:44;8.35;;;3.40;;
20084;SDS011;10202;48.474;9.138;2023-04-15T08:21:19;6.90;;;2.60;;
20084;SDS011;10202;48.474;9.138;2023-04-15T08:23:51;6.25;;;2.88;;
20084;SDS011;10202;48.474;9.138;2023-04-15T08:26:18;5.40;;;2.78;;
20084;SDS011;10202;48.474;9.138;2023-04-15T08:28:45;5.35;;;2.80;;
20084;SDS011;10202;48.474;9.138;2023-04-15T08:31:16;8.57;;;2.70;;
20084;SDS011;10202;48.474;9.138;2023-04-15T08:33:47;4.60;;;2.35;;
20084;SDS011;10202;48.474;9.138;2023-04-15T08:36:13;5.28;;;2.55;;
20084;SDS011;10202;48.474;9.138;2023-04-15T08:38:43;5.90;;;2.25;;
20084;SDS011;10202;48.474;9.138;2023-04-15T08:41:19;4.43;;;1.95;;
20084;SDS011;10202;48.474;9.138;2023-04-15T08:46:23;4.70;;;2.28;;
20084;SDS011;10202;48.474;9.138;2023-04-15T08:48:49;6.95;;;2.35;;
20084;SDS011;10202;48.474;9.138;2023-04-15T08:51:17;5.20;;;2.63;;
20084;SDS011;10202;48.474;9.138;2023-04-15T08:53:47;10.48;;;2.35;;
20084;SDS011;10202;48.474;9.138;2023-04-15T08:56:21;5.43;;;2.30;;
20084;SDS011;10202;48.474;9.138;2023-04-15T08:58:50;3.08;;;2.30;;
20084;SDS011;10202;48.474;9.138;2023-04-15T09:01:19;6.50;;;2.83;;
20084;SDS011;10202;48.474;9.138;2023-04-15T09:03:47;6.97;;;2.40;;
20084;SDS011;10202;48.474;9.138;2023-04-15T09:06:16;5.05;;;2.58;;
20084;SDS011;10202;48.474;9.138;2023-04-15T09:08:44;5.50;;;2.83;;
20084;SDS011;10202;48.474;9.138;2023-04-15T09:11:12;5.28;;;2.50;;
20084;SDS011;10202;48.474;9.138;2023-04-15T09:13:41;4.03;;;2.50;;
20084;SDS011;10202;48.474;9.138;2023-04-15T09:16:15;9.52;;;2.95;;
20084;SDS011;10202;48.474;9.138;2023-04-15T09:18:46;4.90;;;2.50;;
20084;SDS011;10202;48.474;9.138;2023-04-15T09:21:15;4.25;;;2.63;;
20084;SDS011;10202;48.474;9.138;2023-04-15T09:23:57;4.43;;;2.28;;
20084;SDS011;10202;48.474;9.138;2023-04-15T09:26:32;4.20;;;2.30;;
20084;SDS011;10202;48.474;9.138;2023-04-15T09:29:08;5.90;;;2.70;;
20084;SDS011;10202;48.474;9.138;2023-04-15T09:31:41;8.68;;;3.50;;
20084;SDS011;10202;48.474;9.138;2023-04-15T09:34:07;6.93;;;2.75;;
20084;SDS011;10202;48.474;9.138;2023-04-15T09:36:40;9.10;;;2.20;;
20084;SDS011;10202;48.474;9.138;2023-04-15T09:39:16;4.80;;;2.65;;
20084;SDS011;10202;48.474;9.138;2023-04-15T09:42:02;3.97;;;2.40;;
20084;SDS011;10202;48.474;9.138;2023-04-15T09:44:32;6.85;;;2.75;;
20084;SDS011;10202;48.474;9.138;2023-04-15T09:47:05;4.65;;;2.30;;
20084;SDS011;10202;48.474;9.138;2023-04-15T09:49:36;6.20;;;2.35;;
20084;SDS011;10202;48.474;9.138;2023-04-15T09:52:04;5.32;;;2.58;;
20084;SDS011;10202;48.474;9.138;2023-04-15T09:54:36;3.97;;;2.08;;
20084;SDS011;10202;48.474;9.138;2023-04-15T09:57:13;5.28;;;2.03;;
20084;SDS011;10202;48.474;9.138;2023-04-15T09:59:43;5.15;;;2.28;;
20084;SDS011;10202;48.474;9.138;2023-04-15T10:02:11;5.75;;;2.10;;
20084;SDS011;10202;48.474;9.138;2023-04-15T10:04:40;4.63;;;2.25;;
20084;SDS011;10202;48.474;9.138;2023-04-15T10:07:10;8.00;;;2.90;;
20084;SDS011;10202;48.474;9.138;2023-04-15T10:09:39;6.45;;;2.28;;
20084;SDS011;10202;48.474;9.138;2023-04-15T10:12:07;4.63;;;1.90;;
20084;SDS011;10202;48.474;9.138;2023-04-15T10:14:38;3.13;;;2.08;;
20084;SDS011;10202;48.474;9.138;2023-04-15T10:17:05;6.95;;;2.50;;
20084;SDS011;10202;48.474;9.138;2023-04-15T10:19:35;5.28;;;2.50;;
20084;SDS011;10202;48.474;9.138;2023-04-15T10:22:03;5.60;;;1.95;;
20084;SDS011;10202;48.474;9.138;2023-04-15T10:24:33;6.30;;;2.22;;
20084;SDS011;10202;48.474;9.138;2023-04-15T10:26:59;4.47;;;1.70;;
20084;SDS011;10202;48.474;9.138;2023-04-15T10:29:27;5.47;;;1.95;;
20084;SDS011;10202;48.474;9.138;2023-04-15T10:31:54;3.15;;;1.80;;
20084;SDS011;10202;48.474;9.138;2023-04-15T10:34:26;4.70;;;1.75;;
20084;SDS011;10202;48.474;9.138;2023-04-15T10:36:59;6.20;;;2.00;;
20084;SDS011;10202;48.474;9.138;2023-04-15T10:42:10;3.03;;;1.90;;
20084;SDS011;10202;48.474;9.138;2023-04-15T10:44:41;6.68;;;2.08;;
20084;SDS011;10202;48.474;9.138;2023-04-15T10:47:14;6.18;;;1.52;;
20084;SDS011;10202;48.474;9.138;2023-04-15T10:49:50;4.18;;;1.98;;
20084;SDS011;10202;48.474;9.138;2023-04-15T10:52:22;4.82;;;1.92;;
20084;SDS011;10202;48.474;9.138;2023-04-15T10:54:57;5.68;;;1.73;;
20084;SDS011;10202;48.474;9.138;2023-04-15T10:57:41;5.80;;;2.00;;
20084;SDS011;10202;48.474;9.138;2023-04-15T11:05:14;3.03;;;1.70;;
20084;SDS011;10202;48.474;9.138;2023-04-15T11:12:45;4.80;;;1.70;;
20084;SDS011;10202;48.474;9.138;2023-04-15T11:23:16;2.97;;;1.77;;
20084;SDS011;10202;48.474;9.138;2023-04-15T11:25:46;3.95;;;1.90;;
20084;SDS011;10202;48.474;9.138;2023-04-15T11:28:23;3.47;;;1.75;;
20084;SDS011;10202;48.474;9.138;2023-04-15T11:30:56;7.57;;;1.90;;
20084;SDS011;10202;48.474;9.138;2023-04-15T11:33:37;3.17;;;1.88;;
20084;SDS011;10202;48.474;9.138;2023-04-15T11:36:25;5.60;;;2.13;;
20084;SDS011;10202;48.474;9.138;2023-04-15T11:38:53;5.65;;;1.90;;
20084;SDS011;10202;48.474;9.138;2023-04-15T11:41:19;7.57;;;2.08;;
20084;SDS011;10202;48.474;9.138;2023-04-15T11:43:46;4.95;;;2.00;;
20084;SDS011;10202;48.474;9.138;2023-04-15T11:46:12;3.70;;;2.20;;
20084;SDS011;10202;48.474;9.138;2023-04-15T11:48:43;4.85;;;2.20;;
20084;SDS011;10202;48.474;9.138;2023-04-15T11:51:11;7.20;;;2.08;;
20084;SDS011;10202;48.474;9.138;2023-04-15T11:53:44;7.00;;;2.20;;
20084;SDS011;10202;48.474;9.138;2023-04-15T11:56:21;8.90;;;2.10;;
20084;SDS011;10202;48.474;9.138;2023-04-15T11:58:51;6.07;;;2.10;;
20084;SDS011;10202;48.474;9.138;2023-04-15T12:01:36;4.05;;;1.98;;
20084;SDS011;10202;48.474;9.138;2023-04-15T12:04:14;6.72;;;2.13;;
20084;SDS011;10202;48.474;9.138;2023-04-15T12:06:44;4.03;;;1.60;;
20084;SDS011;10202;48.474;9.138;2023-04-15T12:11:49;2.67;;;1.70;;
20084;SDS011;10202;48.474;9.138;2023-04-15T12:14:25;6.07;;;2.20;;
20084;SDS011;10202;48.474;9.138;2023-04-15T12:16:57;4.28;;;2.20;;
20084;SDS011;10202;48.474;9.138;2023-04-15T12:22:05;6.47;;;2.13;;
20084;SDS011;10202;48.474;9.138;2023-04-15T12:24:37;7.40;;;2.45;;
20084;SDS011;10202;48.474;9.138;2023-04-15T12:27:07;4.97;;;2.72;;
20084;SDS011;10202;48.474;9.138;2023-04-15T12:29:39;3.38;;;2.30;;
20084;SDS011;10202;48.474;9.138;2023-04-15T12:32:14;4.32;;;2.30;;
20084;SDS011;10202;48.474;9.138;2023-04-15T12:34:50;2.53;;;2.15;;
20084;SDS011;10202;48.474;9.138;2023-04-15T12:37:18;4.60;;;2.03;;
20084;SDS011;10202;48.474;9.138;2023-04-15T12:39:48;5.25;;;2.28;;
20084;SDS011;10202;48.474;9.138;2023-04-15T12:42:15;4.78;;;2.53;;
20084;SDS011;10202;48.474;9.138;2023-04-15T12:44:41;2.70;;;1.70;;
20084;SDS011;10202;48.474;9.138;2023-04-15T12:47:09;3.53;;;2.30;;
20084;SDS011;10202;48.474;9.138;2023-04-15T12:49:40;6.97;;;2.45;;
20084;SDS011;10202;48.474;9.138;2023-04-15T12:52:05;5.45;;;2.20;;
20084;SDS011;10202;48.474;9.138;2023-04-15T12:54:34;4.35;;;2.00;;
20084;SDS011;10202;48.474;9.138;2023-04-15T12:57:04;4.40;;;2.10;;
20084;SDS011;10202;48.474;9.138;2023-04-15T12:59:33;5.35;;;2.50;;
20084;SDS011;10202;48.474;9.138;2023-04-15T13:02:02;6.70;;;3.08;;
20084;SDS011;10202;48.474;9.138;2023-04-15T13:04:32;4.47;;;2.50;;
20084;SDS011;10202;48.474;9.138;2023-04-15T13:07:00;3.88;;;2.25;;
20084;SDS011;10202;48.474;9.138;2023-04-15T13:09:29;5.10;;;2.30;;
20084;SDS011;10202;48.474;9.138;2023-04-15T13:11:56;7.72;;;2.47;;
20084;SDS011;10202;48.474;9.138;2023-04-15T13:14:22;3.13;;;2.40;;
20084;SDS011;10202;48.474;9.138;2023-04-15T13:16:51;6.18;;;2.25;;
20084;SDS011;10202;48.474;9.138;2023-04-15T13:19:17;2.65;;;1.77;;
20084;SDS011;10202;48.474;9.138;2023-04-15T13:21:45;2.53;;;1.70;;
20084;SDS011;10202;48.474;9.138;2023-04-15T13:24:11;8.18;;;2.17;;
20084;SDS011;10202;48.474;9.138;2023-04-15T13:26:39;5.82;;;2.60;;
20084;SDS011;10202;48.474;9.138;2023-04-15T13:29:05;6.55;;;2.60;;
20084;SDS011;10202;48.474;9.138;2023-04-15T13:31:33;4.43;;;2.40;;
20084;SDS011;10202;48.474;9.138;2023-04-15T13:34:04;5.82;;;2.95;;
20084;SDS011;10202;48.474;9.138;2023-04-15T13:36:32;6.05;;;2.90;;
20084;SDS011;10202;48.474;9.138;2023-04-15T13:39:00;5.07;;;3.25;;
20084;SDS011;10202;48.474;9.138;2023-04-15T13:41:30;6.28;;;3.80;;
20084;SDS011;10202;48.474;9.138;2023-04-15T13:43:57;7.82;;;3.80;;
20084;SDS011;10202;48.474;9.138;2023-04-15T13:46:26;4.65;;;3.35;;
20084;SDS011;10202;48.474;9.138;2023-04-15T13:48:56;5.75;;;3.47;;
20084;SDS011;10202;48.474;9.138;2023-04-15T13:51:21;3.95;;;3.10;;
20084;SDS011;10202;48.474;9.138;2023-04-15T13:53:52;4.15;;;3.20;;
20084;SDS011;10202;48.474;9.138;2023-04-15T13:56:20;5.50;;;3.20;;
20084;SDS011;10202;48.474;9.138;2023-04-15T13:58:46;5.47;;;3.13;;
20084;SDS011;10202;48.474;9.138;2023-04-15T14:01:14;4.57;;;3.28;;
20084;SDS011;10202;48.474;9.138;2023-04-15T14:03:42;6.75;;;3.40;;
20084;SDS011;10202;48.474;9.138;2023-04-15T14:06:07;5.47;;;3.28;;
20084;SDS011;10202;48.474;9.138;2023-04-15T14:08:33;6.80;;;3.13;;
20084;SDS011;10202;48.474;9.138;2023-04-15T14:11:02;7.05;;;3.60;;
20084;SDS011;10202;48.474;9.138;2023-04-15T14:13:31;8.43;;;3.25;;
20084;SDS011;10202;48.474;9.138;2023-04-15T14:15:56;8.88;;;5.38;;
20084;SDS011;10202;48.474;9.138;2023-04-15T14:18:25;6.35;;;3.15;;
20084;SDS011;10202;48.474;9.138;2023-04-15T14:20:50;5.38;;;3.28;;
20084;SDS011;10202;48.474;9.138;2023-04-15T14:23:21;5.97;;;3.00;;
20084;SDS011;10202;48.474;9.138;2023-04-15T14:25:47;3.85;;;2.60;;
20084;SDS011;10202;48.474;9.138;2023-04-15T14:28:19;3.67;;;2.55;;
20084;SDS011;10202;48.474;9.138;2023-04-15T14:30:45;9.63;;;2.65;;
20084;SDS011;10202;48.474;9.138;2023-04-15T14:33:13;6.07;;;2.88;;
20084;SDS011;10202;48.474;9.138;2023-04-15T14:35:38;7.75;;;4.88;;
20084;SDS011;10202;48.474;9.138;2023-04-15T14:38:07;8.93;;;4.90;;
20084;SDS011;10202;48.474;9.138;2023-04-15T14:40:37;6.00;;;3.33;;
20084;SDS011;10202;48.474;9.138;2023-04-15T14:43:03;5.13;;;3.10;;
20084;SDS011;10202;48.474;9.138;2023-04-15T14:45:29;4.30;;;2.85;;
20084;SDS011;10202;48.474;9.138;2023-04-15T14:47:58;4.35;;;2.97;;
20084;SDS011;10202;48.474;9.138;2023-04-15T14:50:23;4.60;;;2.80;;
20084;SDS011;10202;48.474;9.138;2023-04-15T14:52:49;6.32;;;2.90;;
20084;SDS011;10202;48.474;9.138;2023-04-15T14:55:20;4.03;;;2.85;;
20084;SDS011;10202;48.474;9.138;2023-04-15T14:57:45;5.53;;;3.00;;
20084;SDS011;10202;48.474;9.138;2023-04-15T15:00:13;5.65;;;3.28;;
20084;SDS011;10202;48.474;9.138;2023-04-15T15:02:44;4.15;;;2.83;;
20084;SDS011;10202;48.474;9.138;2023-04-15T15:05:11;4.85;;;3.00;;
20084;SDS011;10202;48.474;9.138;2023-04-15T15:07:37;5.05;;;2.63;;
20084;SDS011;10202;48.474;9.138;2023-04-15T15:10:09;3.90;;;2.30;;
20084;SDS011;10202;48.474;9.138;2023-04-15T15:12:35;6.72;;;2.40;;
20084;SDS011;10202;48.474;9.138;2023-04-15T15:15:01;6.25;;;2.95;;
20084;SDS011;10202;48.474;9.138;2023-04-15T15:17:30;5.78;;;2.42;;
20084;SDS011;10202;48.474;9.138;2023-04-15T15:20:04;4.57;;;2.10;;
20084;SDS011;10202;48.474;9.138;2023-04-15T15:22:33;6.10;;;3.03;;
20084;SDS011;10202;48.474;9.138;2023-04-15T15:25:01;2.55;;;1.90;;
20084;SDS011;10202;48.474;9.138;2023-04-15T15:27:30;2.25;;;1.38;;
20084;SDS011;10202;48.474;9.138;2023-04-15T15:30:02;5.82;;;2.08;;